Time;durP1;ratioP1;P1;durP2;ratioP2;P2;SDS_P1;SDS_P2;PMS_P1;PMS_P2;Temp;Humidity;BMP_temperature;BMP_pressure;BME280_temperature;BME280_humidity;BME280_pressure;Samples;Min_cycle;Max_cycle;Signal;HPM_P1;HPM_P2
2022/07/10 00:00:39;;;;;;;3.67;0.70;;;12.60;76.70;;;;;;4998209;28;20041;-67
2022/07/10 00:03:05;;;;;;;7.50;1.07;;;12.60;76.50;;;;;;4990101;28;20050;-67
2022/07/10 00:05:32;;;;;;;6.57;1.20;;;12.60;77.00;;;;;;5006435;28;20050;-67
2022/07/10 00:07:57;;;;;;;5.40;0.70;;;12.60;77.00;;;;;;5001775;28;20620;-67
2022/07/10 00:10:24;;;;;;;8.07;0.90;;;12.50;76.60;;;;;;4992132;28;20318;-67
2022/07/10 00:12:51;;;;;;;4.10;0.87;;;12.50;76.40;;;;;;5005730;28;20038;-67
2022/07/10 00:15:18;;;;;;;6.67;0.80;;;12.50;76.30;;;;;;5005970;28;20287;-67
2022/07/10 00:17:44;;;;;;;7.73;1.40;;;12.50;76.40;;;;;;5005919;28;20860;-67
2022/07/10 00:20:11;;;;;;;7.65;1.20;;;12.50;76.10;;;;;;5004105;28;20305;-67
2022/07/10 00:22:40;;;;;;;5.73;1.37;;;12.50;76.20;;;;;;4995339;28;20072;-66
2022/07/10 00:25:08;;;;;;;7.07;0.90;;;12.50;76.50;;;;;;5005693;28;20325;-66
2022/07/10 00:27:34;;;;;;;4.82;0.90;;;12.40;76.60;;;;;;5002992;28;20046;-66
2022/07/10 00:30:01;;;;;;;4.47;1.53;;;12.40;76.60;;;;;;5001778;28;20088;-66
2022/07/10 00:32:27;;;;;;;7.60;0.85;;;12.30;76.60;;;;;;5007055;28;20513;-66
2022/07/10 00:34:53;;;;;;;6.60;0.73;;;12.30;76.50;;;;;;5004746;28;20042;-66
2022/07/10 00:37:20;;;;;;;5.93;1.00;;;12.30;76.60;;;;;;4989998;28;20285;-66
2022/07/10 00:39:46;;;;;;;5.10;0.50;;;12.30;76.70;;;;;;4990307;28;20293;-66
2022/07/10 00:42:14;;;;;;;4.33;0.80;;;12.30;76.50;;;;;;5003234;28;20289;-66
2022/07/10 00:44:41;;;;;;;5.55;0.80;;;12.30;76.20;;;;;;5005198;28;20048;-66
2022/07/10 00:47:08;;;;;;;3.30;0.73;;;12.30;75.90;;;;;;5006296;28;20056;-66
2022/07/10 00:49:35;;;;;;;9.27;1.13;;;12.40;75.80;;;;;;5005967;28;20884;-66
2022/07/10 00:52:03;;;;;;;5.22;0.80;;;12.40;75.80;;;;;;5005860;28;20777;-66
2022/07/10 00:54:30;;;;;;;4.43;0.60;;;12.40;75.60;;;;;;5005276;28;20120;-66
2022/07/10 00:56:56;;;;;;;5.95;1.02;;;12.40;75.50;;;;;;4985853;28;20038;-66
2022/07/10 00:59:23;;;;;;;6.75;1.23;;;12.40;75.50;;;;;;5005597;28;20049;-66
2022/07/10 01:01:50;;;;;;;6.77;0.87;;;12.40;75.70;;;;;;5005860;28;20069;-66
2022/07/10 01:04:16;;;;;;;6.72;0.80;;;12.50;75.80;;;;;;5005026;28;20758;-66
2022/07/10 01:06:41;;;;;;;8.60;1.10;;;12.50;76.00;;;;;;5003907;28;20120;-66
2022/07/10 01:09:07;;;;;;;5.73;0.73;;;12.60;75.90;;;;;;4993376;28;20345;-66
2022/07/10 01:11:34;;;;;;;6.50;1.17;;;12.60;75.80;;;;;;5006101;28;20050;-66
2022/07/10 01:14:03;;;;;;;5.93;0.80;;;12.60;75.80;;;;;;5005056;28;20068;-66
2022/07/10 01:16:30;;;;;;;6.43;1.07;;;12.70;76.30;;;;;;4967665;28;20049;-66
2022/07/10 01:18:56;;;;;;;6.90;0.60;;;12.70;76.60;;;;;;5005436;28;20289;-66
2022/07/10 01:21:33;;;;;;;6.17;0.60;;;12.70;76.70;;;;;;5005907;28;20768;-66
2022/07/10 01:23:59;;;;;;;6.23;0.67;;;12.80;76.30;;;;;;4987983;28;20355;-66
2022/07/10 01:26:26;;;;;;;7.50;1.27;;;12.80;76.10;;;;;;5005750;28;20284;-66
2022/07/10 01:28:53;;;;;;;7.30;0.70;;;12.90;75.70;;;;;;5003365;28;20343;-66
2022/07/10 01:31:26;;;;;;;6.17;0.70;;;12.90;75.70;;;;;;4984345;28;20296;-66
2022/07/10 01:33:53;;;;;;;6.13;0.50;;;12.90;75.80;;;;;;4976292;28;20835;-66
2022/07/10 01:36:22;;;;;;;7.10;0.80;;;12.80;76.00;;;;;;4981922;28;20681;-66
2022/07/10 01:38:51;;;;;;;6.63;0.63;;;12.80;76.00;;;;;;5005151;28;20312;-66
2022/07/10 01:41:17;;;;;;;7.47;1.37;;;12.80;76.10;;;;;;4982160;28;20285;-66
2022/07/10 01:43:44;;;;;;;6.07;1.03;;;12.80;76.30;;;;;;4987965;28;20362;-66
2022/07/10 01:46:11;;;;;;;6.47;0.80;;;12.70;76.00;;;;;;5005737;28;20616;-66
2022/07/10 01:48:38;;;;;;;6.23;0.70;;;12.70;76.00;;;;;;5004904;28;20671;-66
2022/07/10 01:51:05;;;;;;;4.73;0.60;;;12.70;75.60;;;;;;4996923;28;20285;-66
2022/07/10 01:53:31;;;;;;;5.83;0.73;;;12.70;75.50;;;;;;5004213;28;20281;-66
2022/07/10 01:55:57;;;;;;;3.83;0.40;;;12.70;75.30;;;;;;4972862;28;20281;-66
2022/07/10 01:58:23;;;;;;;3.80;0.40;;;12.70;74.90;;;;;;4983554;28;20054;-66
2022/07/10 02:00:48;;;;;;;4.23;0.30;;;12.70;74.60;;;;;;5005012;28;20339;-66
2022/07/10 02:05:59;;;;;;;7.30;1.15;;;12.70;74.40;;;;;;5004875;28;20481;-67
2022/07/10 02:08:25;;;;;;;3.77;0.63;;;12.70;74.10;;;;;;4992124;28;20054;-67
2022/07/10 02:10:51;;;;;;;5.33;0.40;;;12.80;73.90;;;;;;5002984;28;20041;-67
2022/07/10 02:13:20;;;;;;;3.47;0.43;;;12.80;73.80;;;;;;5005045;28;20074;-67
2022/07/10 02:15:47;;;;;;;3.43;0.40;;;12.90;73.80;;;;;;4987739;28;20125;-67
2022/07/10 02:18:13;;;;;;;5.40;1.10;;;13.00;73.70;;;;;;5005077;28;20347;-67
2022/07/10 02:20:39;;;;;;;6.40;0.70;;;13.00;73.90;;;;;;5004276;28;20324;-67
2022/07/10 02:23:06;;;;;;;4.73;0.77;;;13.10;74.00;;;;;;5004238;28;20347;-67
2022/07/10 02:25:33;;;;;;;4.37;0.50;;;13.10;74.10;;;;;;4999958;28;20665;-67
2022/07/10 02:27:58;;;;;;;4.27;0.57;;;13.20;74.20;;;;;;5002758;28;20309;-67
2022/07/10 02:30:24;;;;;;;2.73;0.57;;;13.30;74.50;;;;;;5017834;28;20296;-67
2022/07/10 02:32:50;;;;;;;5.73;0.67;;;13.40;74.20;;;;;;5003856;28;20482;-67
2022/07/10 02:35:15;;;;;;;8.47;0.93;;;13.40;74.40;;;;;;4970668;28;20141;-67
2022/07/10 02:37:41;;;;;;;9.83;1.10;;;13.50;74.50;;;;;;4987376;28;20313;-67
2022/07/10 02:40:07;;;;;;;5.10;0.53;;;13.60;74.90;;;;;;4986791;28;20593;-67
2022/07/10 02:42:33;;;;;;;3.50;0.70;;;13.60;74.80;;;;;;5005244;28;20042;-67
2022/07/10 02:44:59;;;;;;;5.37;0.70;;;13.70;74.70;;;;;;5003959;28;20277;-67
2022/07/10 02:47:24;;;;;;;9.27;0.80;;;13.80;75.00;;;;;;5005376;28;20212;-67
2022/07/10 02:49:50;;;;;;;6.23;0.93;;;13.80;75.10;;;;;;5004720;28;20570;-67
2022/07/10 02:52:16;;;;;;;6.30;0.73;;;13.80;75.20;;;;;;4988616;28;20124;-67
2022/07/10 02:54:41;;;;;;;4.93;0.80;;;13.90;75.20;;;;;;5004358;28;20469;-67
2022/07/10 02:57:08;;;;;;;6.57;0.93;;;13.90;75.20;;;;;;5005556;28;20128;-67
2022/07/10 02:59:33;;;;;;;6.23;0.90;;;13.90;75.20;;;;;;5024772;28;20092;-68
2022/07/10 03:02:00;;;;;;;6.13;1.00;;;13.90;75.40;;;;;;5008044;28;21334;-67
2022/07/10 03:04:26;;;;;;;4.07;0.73;;;13.90;75.70;;;;;;5007457;28;20374;-67
2022/07/10 03:06:53;;;;;;;5.50;0.50;;;13.90;75.80;;;;;;5008252;28;20295;-67
2022/07/10 03:09:18;;;;;;;7.73;1.53;;;13.90;75.70;;;;;;4991891;28;20809;-67
2022/07/10 03:11:44;;;;;;;6.17;0.70;;;14.00;75.50;;;;;;5008956;28;20289;-67
2022/07/10 03:14:10;;;;;;;10.07;1.00;;;14.00;75.70;;;;;;5006970;28;20049;-67
2022/07/10 03:16:36;;;;;;;5.23;1.00;;;14.00;75.80;;;;;;5008155;28;20285;-67
2022/07/10 03:19:02;;;;;;;6.43;0.93;;;14.00;75.90;;;;;;5003432;28;20057;-68
2022/07/10 03:21:30;;;;;;;5.53;0.73;;;14.00;76.50;;;;;;5001987;28;20785;-66
2022/07/10 03:23:55;;;;;;;5.10;0.90;;;14.00;76.90;;;;;;4984659;28;20060;-66
2022/07/10 03:26:21;;;;;;;4.27;0.70;;;13.90;77.30;;;;;;4990899;28;20297;-67
2022/07/10 03:28:47;;;;;;;7.40;1.17;;;13.90;77.60;;;;;;5007888;28;20120;-66
2022/07/10 03:31:12;;;;;;;5.73;1.47;;;13.90;78.10;;;;;;5006925;28;20033;-66
2022/07/10 03:33:39;;;;;;;6.80;1.57;;;13.90;78.70;;;;;;5007210;28;20075;-66
2022/07/10 03:36:05;;;;;;;2.73;0.87;;;13.90;79.10;;;;;;4980909;28;20030;-66
2022/07/10 03:38:31;;;;;;;7.83;1.33;;;13.90;79.00;;;;;;5006600;28;20327;-66
2022/07/10 03:40:57;;;;;;;8.93;1.50;;;13.90;79.20;;;;;;5001563;28;20277;-66
2022/07/10 03:43:22;;;;;;;7.53;1.50;;;13.90;80.10;;;;;;5006152;28;20657;-66
2022/07/10 03:45:48;;;;;;;4.73;2.07;;;13.90;80.00;;;;;;5023052;28;20049;-66
2022/07/10 03:48:14;;;;;;;9.97;2.50;;;13.90;80.10;;;;;;4999085;28;20792;-66
2022/07/10 03:50:39;;;;;;;11.70;2.40;;;13.90;80.20;;;;;;4990711;28;20059;-67
2022/07/10 03:53:05;;;;;;;9.67;1.60;;;14.00;80.20;;;;;;5007174;28;20088;-67
2022/07/10 03:55:31;;;;;;;8.07;2.70;;;14.00;80.50;;;;;;5005968;28;20116;-66
2022/07/10 03:57:57;;;;;;;7.63;4.03;;;14.00;80.70;;;;;;5007402;28;20046;-67
2022/07/10 04:00:32;;;;;;;6.73;1.30;;;14.00;81.10;;;;;;5007602;28;20509;-67
2022/07/10 04:03:03;;;;;;;5.30;1.23;;;14.00;80.90;;;;;;5006346;28;20396;-66
2022/07/10 04:05:29;;;;;;;5.63;1.20;;;14.00;80.70;;;;;;5003140;28;20368;-67
2022/07/10 04:07:56;;;;;;;6.20;1.53;;;14.00;80.70;;;;;;5005576;28;20308;-67
2022/07/10 04:10:23;;;;;;;5.33;1.13;;;14.00;80.70;;;;;;5006270;28;20370;-67
2022/07/10 04:12:49;;;;;;;5.73;1.73;;;14.00;80.90;;;;;;5006667;28;20788;-67
2022/07/10 04:15:16;;;;;;;9.07;1.53;;;14.00;81.00;;;;;;5006862;28;20689;-67
2022/07/10 04:17:42;;;;;;;7.60;1.47;;;14.00;80.70;;;;;;5003030;28;20281;-67
2022/07/10 04:20:08;;;;;;;7.37;1.30;;;14.00;81.20;;;;;;4989253;28;20284;-66
2022/07/10 04:22:34;;;;;;;5.30;1.27;;;14.10;80.90;;;;;;5006846;28;20292;-66
2022/07/10 04:25:00;;;;;;;4.23;1.53;;;14.10;81.10;;;;;;5005978;28;20277;-66
2022/07/10 04:27:26;;;;;;;5.10;1.00;;;14.10;81.10;;;;;;5006677;28;20052;-66
2022/07/10 04:29:52;;;;;;;5.10;1.63;;;14.10;80.90;;;;;;5007022;28;20494;-66
2022/07/10 04:32:18;;;;;;;6.17;1.10;;;14.10;80.80;;;;;;5005885;28;20411;-66
2022/07/10 04:34:44;;;;;;;4.70;1.10;;;14.10;81.00;;;;;;5005953;28;20289;-66
2022/07/10 04:37:10;;;;;;;4.40;0.90;;;14.10;81.20;;;;;;5006382;28;20281;-67
2022/07/10 04:39:37;;;;;;;5.40;1.97;;;14.10;81.70;;;;;;5001532;28;20132;-67
2022/07/10 04:42:04;;;;;;;8.63;1.33;;;14.20;81.80;;;;;;5003444;28;20296;-67
2022/07/10 04:44:30;;;;;;;6.77;1.50;;;14.20;82.40;;;;;;5018489;28;20304;-67
2022/07/10 04:46:56;;;;;;;8.40;2.53;;;14.20;82.20;;;;;;5006742;28;20277;-67
2022/07/10 04:49:22;;;;;;;7.43;1.70;;;14.30;82.10;;;;;;5006307;28;20315;-67
2022/07/10 04:51:48;;;;;;;6.57;1.07;;;14.30;82.00;;;;;;4987186;28;20502;-67
2022/07/10 04:54:14;;;;;;;6.13;1.20;;;14.30;82.10;;;;;;4987323;28;20034;-67
2022/07/10 04:56:40;;;;;;;4.87;1.57;;;14.40;82.00;;;;;;4970197;28;20292;-67
2022/07/10 04:59:06;;;;;;;8.13;2.10;;;14.40;82.40;;;;;;5004186;28;20053;-67
2022/07/10 05:01:31;;;;;;;7.97;1.57;;;14.40;82.00;;;;;;5006164;28;20789;-67
2022/07/10 05:03:57;;;;;;;7.53;1.30;;;14.50;82.00;;;;;;4986277;28;20054;-67
2022/07/10 05:06:23;;;;;;;7.77;1.30;;;14.50;82.20;;;;;;5003720;28;20046;-66
2022/07/10 05:08:49;;;;;;;6.80;1.17;;;14.60;81.80;;;;;;5005804;28;20060;-66
2022/07/10 05:11:14;;;;;;;6.50;1.23;;;14.60;81.30;;;;;;4973341;28;20052;-66
2022/07/10 05:13:43;;;;;;;4.83;1.30;;;14.60;81.40;;;;;;5004986;28;20041;-66
2022/07/10 05:16:09;;;;;;;6.20;1.37;;;14.70;81.10;;;;;;4990451;28;20049;-66
2022/07/10 05:18:35;;;;;;;5.23;1.20;;;14.70;80.70;;;;;;5005681;28;20287;-66
2022/07/10 05:21:00;;;;;;;7.20;1.37;;;14.80;80.40;;;;;;5005230;28;20518;-66
2022/07/10 05:23:26;;;;;;;5.63;1.03;;;14.90;80.30;;;;;;5005064;28;20129;-67
2022/07/10 05:25:52;;;;;;;6.13;1.10;;;14.90;80.20;;;;;;5006533;28;20057;-66
2022/07/10 05:28:17;;;;;;;8.20;1.80;;;15.00;80.10;;;;;;4989613;28;20042;-66
2022/07/10 05:30:43;;;;;;;8.03;1.40;;;15.00;80.00;;;;;;5005837;28;20124;-66
2022/07/10 05:33:09;;;;;;;5.53;1.17;;;15.00;80.10;;;;;;5004493;28;20124;-67
2022/07/10 05:35:35;;;;;;;5.10;1.33;;;15.00;80.20;;;;;;4989273;28;20045;-67
2022/07/10 05:38:01;;;;;;;7.20;1.10;;;15.00;80.20;;;;;;5005443;28;20299;-67
2022/07/10 05:40:27;;;;;;;7.03;1.90;;;15.00;80.20;;;;;;4984384;28;20292;-67
2022/07/10 05:42:53;;;;;;;5.47;1.10;;;15.00;80.10;;;;;;5005282;28;20522;-67
2022/07/10 05:45:19;;;;;;;4.87;1.00;;;15.00;80.00;;;;;;5004987;28;20509;-67
2022/07/10 05:47:45;;;;;;;4.93;0.90;;;15.00;79.70;;;;;;4976317;28;20046;-67
2022/07/10 05:50:11;;;;;;;6.57;1.60;;;15.10;79.60;;;;;;5001328;28;20289;-67
2022/07/10 05:52:37;;;;;;;5.67;0.90;;;15.10;79.10;;;;;;4989065;28;20640;-67
2022/07/10 05:55:03;;;;;;;2.97;0.87;;;15.10;79.10;;;;;;5004900;28;20096;-67
2022/07/10 05:57:32;;;;;;;3.53;0.60;;;15.10;78.90;;;;;;5005595;28;20293;-67
2022/07/10 05:59:58;;;;;;;6.33;1.10;;;15.20;79.10;;;;;;5005746;28;20788;-66
2022/07/10 06:02:24;;;;;;;5.53;0.77;;;15.30;79.00;;;;;;5005536;28;20301;-67
2022/07/10 06:04:50;;;;;;;3.97;0.70;;;15.40;78.90;;;;;;5005202;28;20065;-67
2022/07/10 06:07:16;;;;;;;6.60;1.00;;;15.50;78.90;;;;;;5000116;28;20042;-67
2022/07/10 06:09:42;;;;;;;6.67;2.10;;;15.60;78.90;;;;;;4989120;28;20534;-67
2022/07/10 06:12:08;;;;;;;4.93;0.90;;;15.80;78.80;;;;;;5005033;28;20284;-67
2022/07/10 06:14:34;;;;;;;3.67;0.73;;;16.10;78.20;;;;;;5004054;28;20567;-67
2022/07/10 06:17:00;;;;;;;4.50;1.20;;;16.40;77.50;;;;;;5005308;28;20279;-67
2022/07/10 06:19:25;;;;;;;4.80;0.97;;;16.50;76.60;;;;;;5004387;28;20046;-67
2022/07/10 06:22:30;;;;;;;6.40;1.23;;;16.40;76.20;;;;;;5004627;28;20508;-67
2022/07/10 06:24:37;;;;;;;4.37;0.70;;;16.20;76.40;;;;;;5004532;28;20045;-67
2022/07/10 06:27:03;;;;;;;5.27;0.80;;;16.00;77.80;;;;;;5005214;28;20281;-67
2022/07/10 06:29:28;;;;;;;3.97;0.77;;;15.80;78.60;;;;;;5004925;28;20034;-67
2022/07/10 06:31:54;;;;;;;7.47;1.00;;;15.70;79.00;;;;;;4989515;28;20780;-67
2022/07/10 06:34:20;;;;;;;5.40;1.00;;;15.60;79.80;;;;;;4991655;28;20079;-69
2022/07/10 06:36:46;;;;;;;4.97;1.10;;;15.50;80.70;;;;;;4991527;28;20160;-68
2022/07/10 06:39:11;;;;;;;3.33;0.77;;;15.50;82.30;;;;;;4992287;28;20045;-68
2022/07/10 06:41:38;;;;;;;3.70;1.00;;;15.50;82.00;;;;;;4976609;28;20053;-68
2022/07/10 06:44:04;;;;;;;6.23;1.83;;;15.50;82.10;;;;;;5003545;28;20376;-68
2022/07/10 06:46:31;;;;;;;2.40;0.73;;;15.50;82.30;;;;;;5004170;28;20299;-68
2022/07/10 06:48:58;;;;;;;4.83;1.60;;;15.40;82.90;;;;;;5003991;28;20312;-68
2022/07/10 06:51:24;;;;;;;7.03;0.90;;;15.30;83.30;;;;;;5008671;28;20272;-68
2022/07/10 06:53:50;;;;;;;2.77;1.00;;;15.20;83.10;;;;;;5007706;28;20644;-68
2022/07/10 06:56:16;;;;;;;4.67;2.03;;;15.20;83.80;;;;;;5008423;28;20049;-69
2022/07/10 06:58:42;;;;;;;1.97;0.53;;;15.10;84.20;;;;;;5008323;28;20292;-68
2022/07/10 07:01:08;;;;;;;4.70;0.60;;;15.10;84.10;;;;;;5008079;28;20695;-68
2022/07/10 07:03:36;;;;;;;2.77;1.00;;;15.20;83.80;;;;;;5007566;28;20414;-68
2022/07/10 07:06:02;;;;;;;4.00;1.20;;;15.20;83.90;;;;;;5007996;28;20348;-68
2022/07/10 07:08:30;;;;;;;4.53;1.20;;;15.30;84.10;;;;;;5007699;28;20305;-68
2022/07/10 07:10:56;;;;;;;5.30;1.20;;;15.40;83.70;;;;;;5008168;28;20042;-68
2022/07/10 07:13:22;;;;;;;4.73;0.87;;;15.50;83.80;;;;;;4990694;28;20368;-68
2022/07/10 07:16:09;;;;;;;5.27;1.30;;;15.60;83.50;;;;;;4989968;28;20141;-68
2022/07/10 07:18:37;;;;;;;4.37;0.90;;;15.70;83.20;;;;;;4991508;28;20046;-68
2022/07/10 07:23:47;;;;;;;5.90;1.17;;;15.90;82.80;;;;;;5007117;28;20300;-69
2022/07/10 07:26:13;;;;;;;5.10;1.00;;;15.90;82.10;;;;;;5013556;28;20293;-68
2022/07/10 07:28:38;;;;;;;4.53;1.30;;;15.90;81.60;;;;;;5008019;28;20038;-68
2022/07/10 07:31:04;;;;;;;5.83;0.83;;;15.90;81.60;;;;;;5024557;28;20037;-68
2022/07/10 07:33:30;;;;;;;4.60;1.77;;;15.90;81.30;;;;;;5012866;28;20038;-68
2022/07/10 07:35:56;;;;;;;4.10;0.90;;;16.00;81.10;;;;;;5005627;28;20041;-69
2022/07/10 07:38:24;;;;;;;4.10;0.83;;;16.00;80.90;;;;;;5007388;28;20052;-69
2022/07/10 07:40:50;;;;;;;4.93;1.20;;;16.10;80.40;;;;;;5007848;28;20289;-66
2022/07/10 07:43:16;;;;;;;5.27;1.20;;;16.10;79.70;;;;;;5006492;28;20510;-66
2022/07/10 07:45:41;;;;;;;2.43;0.80;;;16.20;79.10;;;;;;4991303;28;20053;-67
2022/07/10 07:48:07;;;;;;;3.77;1.10;;;16.30;78.10;;;;;;5007120;28;20128;-67
2022/07/10 07:50:35;;;;;;;3.20;0.70;;;16.30;78.00;;;;;;4974931;28;20060;-67
2022/07/10 07:53:02;;;;;;;3.60;1.23;;;16.30;78.00;;;;;;5006914;28;20103;-67
2022/07/10 07:55:30;;;;;;;6.57;1.17;;;16.30;78.20;;;;;;5004918;28;20878;-67
2022/07/10 07:57:57;;;;;;;2.47;0.70;;;16.30;78.70;;;;;;5013627;28;20359;-67
2022/07/10 08:00:24;;;;;;;3.57;1.30;;;16.20;79.10;;;;;;4975362;28;20316;-67
2022/07/10 08:02:51;;;;;;;5.33;0.90;;;16.20;79.40;;;;;;5006284;28;20296;-67
2022/07/10 08:05:18;;;;;;;3.20;0.80;;;16.30;79.40;;;;;;5006981;28;20738;-68
2022/07/10 08:07:46;;;;;;;3.20;0.60;;;16.40;79.30;;;;;;5006076;28;20278;-67
2022/07/10 08:10:14;;;;;;;4.37;0.83;;;16.60;78.90;;;;;;5006868;28;20300;-67
2022/07/10 08:12:41;;;;;;;3.53;0.80;;;16.70;78.10;;;;;;5006885;28;20293;-67
2022/07/10 08:15:11;;;;;;;6.50;1.30;;;17.10;77.90;;;;;;4999039;28;20391;-67
2022/07/10 08:17:37;;;;;;;5.97;3.13;;;17.50;76.60;;;;;;5006639;28;20712;-67
2022/07/10 08:20:10;;;;;;;4.33;1.10;;;17.90;74.30;;;;;;5006767;28;20289;-67
2022/07/10 08:22:36;;;;;;;4.20;0.93;;;18.10;72.20;;;;;;5000443;28;20304;-67
2022/07/10 08:25:02;;;;;;;8.40;2.80;;;18.10;72.20;;;;;;5006411;28;20524;-67
2022/07/10 08:27:28;;;;;;;3.43;1.00;;;17.90;71.40;;;;;;5006301;28;20095;-67
2022/07/10 08:29:54;;;;;;;5.30;0.60;;;17.60;70.70;;;;;;4990029;28;20058;-67
2022/07/10 08:32:19;;;;;;;2.73;0.60;;;17.40;71.80;;;;;;5006502;28;20096;-67
2022/07/10 08:34:45;;;;;;;6.93;1.30;;;17.20;71.70;;;;;;4999760;28;20066;-67
2022/07/10 08:37:11;;;;;;;3.70;1.10;;;17.00;72.40;;;;;;5001697;28;20041;-67
2022/07/10 08:39:37;;;;;;;4.70;0.63;;;16.90;72.80;;;;;;5006498;28;20054;-67
2022/07/10 08:42:06;;;;;;;3.73;0.80;;;16.80;73.20;;;;;;5006442;28;20050;-67
2022/07/10 08:44:32;;;;;;;8.40;1.23;;;16.90;73.80;;;;;;5005697;28;20291;-67
2022/07/10 08:46:58;;;;;;;5.23;1.40;;;16.90;73.90;;;;;;5006379;28;20352;-67
2022/07/10 08:49:28;;;;;;;3.00;0.90;;;17.10;73.90;;;;;;5006663;28;20345;-67
2022/07/10 08:52:08;;;;;;;3.67;0.53;;;17.30;73.30;;;;;;5006408;28;20045;-67
2022/07/10 08:54:35;;;;;;;3.13;1.03;;;17.50;72.50;;;;;;5005443;28;20309;-67
2022/07/10 08:57:03;;;;;;;2.77;0.60;;;17.60;71.20;;;;;;4989223;28;20277;-67
2022/07/10 08:59:30;;;;;;;4.57;0.90;;;17.70;71.50;;;;;;5006211;28;20320;-67
2022/07/10 09:01:56;;;;;;;3.13;0.70;;;17.80;71.70;;;;;;4989904;28;20816;-67
2022/07/10 09:04:24;;;;;;;3.93;0.93;;;17.70;71.00;;;;;;5004979;28;20301;-67
2022/07/10 09:06:52;;;;;;;4.67;0.93;;;17.60;70.80;;;;;;5022569;28;20908;-67
2022/07/10 09:09:18;;;;;;;5.90;1.00;;;17.40;72.10;;;;;;4978613;28;20877;-67
2022/07/10 09:11:44;;;;;;;2.97;1.10;;;17.20;73.00;;;;;;5005196;28;20328;-67
2022/07/10 09:14:13;;;;;;;5.17;1.00;;;17.10;73.90;;;;;;4998398;28;20281;-67
2022/07/10 09:16:40;;;;;;;6.30;1.03;;;17.10;74.50;;;;;;5002429;28;20086;-67
2022/07/10 09:19:18;;;;;;;5.37;1.40;;;17.10;75.00;;;;;;5001633;28;20301;-67
2022/07/10 09:21:46;;;;;;;4.50;1.43;;;17.30;75.50;;;;;;5002811;28;20608;-67
2022/07/10 09:24:12;;;;;;;7.37;1.33;;;17.50;75.10;;;;;;5003777;28;20342;-67
2022/07/10 09:26:39;;;;;;;5.73;1.20;;;17.80;74.60;;;;;;4987481;28;20284;-67
2022/07/10 09:29:08;;;;;;;7.23;1.00;;;18.00;73.70;;;;;;5002829;28;20328;-67
2022/07/10 09:31:52;;;;;;;4.67;0.80;;;18.10;73.40;;;;;;5004891;28;20637;-67
2022/07/10 09:34:35;;;;;;;6.70;1.30;;;18.20;72.10;;;;;;4996616;28;20793;-67
2022/07/10 09:37:20;;;;;;;3.97;1.07;;;18.30;71.50;;;;;;5002727;28;20445;-67
2022/07/10 09:39:53;;;;;;;4.50;0.70;;;18.40;70.80;;;;;;4997294;28;20807;-67
2022/07/10 09:42:32;;;;;;;4.67;1.13;;;18.60;70.30;;;;;;5003880;28;20072;-67
2022/07/10 09:45:13;;;;;;;4.03;1.43;;;18.60;68.40;;;;;;5006659;28;20277;-67
2022/07/10 09:47:39;;;;;;;5.80;0.80;;;18.50;68.30;;;;;;5006168;28;20339;-67
2022/07/10 09:50:22;;;;;;;4.47;0.90;;;18.30;68.60;;;;;;5006396;28;20312;-67
2022/07/10 09:52:58;;;;;;;3.60;0.80;;;18.20;68.90;;;;;;5009462;28;20285;-67
2022/07/10 09:55:29;;;;;;;1.90;0.50;;;18.10;69.20;;;;;;5003172;28;20328;-67
2022/07/10 09:58:06;;;;;;;5.50;1.07;;;18.10;69.20;;;;;;4986402;28;20285;-67
2022/07/10 10:00:37;;;;;;;3.50;0.70;;;18.30;69.40;;;;;;5003692;28;20335;-67
2022/07/10 10:03:08;;;;;;;4.70;0.87;;;18.60;69.50;;;;;;5003419;28;20522;-67
2022/07/10 10:05:36;;;;;;;6.73;0.90;;;18.60;68.80;;;;;;4987854;28;20281;-67
2022/07/10 10:08:10;;;;;;;3.47;0.70;;;18.60;68.30;;;;;;5006440;28;20384;-67
2022/07/10 10:10:37;;;;;;;3.27;0.60;;;18.60;68.30;;;;;;5007467;28;20288;-67
2022/07/10 10:13:08;;;;;;;3.73;0.70;;;18.40;68.50;;;;;;5005433;28;20281;-67
2022/07/10 10:15:35;;;;;;;6.50;0.83;;;18.30;68.80;;;;;;4980332;28;20297;-67
2022/07/10 10:18:02;;;;;;;3.83;0.83;;;18.10;69.30;;;;;;5009245;28;20359;-67
2022/07/10 10:20:41;;;;;;;3.40;0.80;;;17.90;70.10;;;;;;4983288;28;20432;-67
2022/07/10 10:23:13;;;;;;;2.73;0.77;;;17.80;71.00;;;;;;5005219;28;20375;-68
2022/07/10 10:25:40;;;;;;;3.93;0.73;;;17.50;72.10;;;;;;5003666;28;20277;-68
2022/07/10 10:28:08;;;;;;;4.33;0.97;;;17.30;73.20;;;;;;5005290;28;20288;-68
2022/07/10 10:30:38;;;;;;;3.80;1.13;;;17.00;74.80;;;;;;5001929;28;20364;-68
2022/07/10 10:33:04;;;;;;;5.90;1.23;;;16.90;76.00;;;;;;5005715;28;20281;-68
2022/07/10 10:35:47;;;;;;;4.87;0.97;;;16.90;76.00;;;;;;5004490;28;20366;-68
2022/07/10 10:38:14;;;;;;;3.67;1.17;;;16.80;76.40;;;;;;5004199;28;20049;-68
2022/07/10 10:40:39;;;;;;;3.83;0.73;;;16.80;75.70;;;;;;4991900;28;20685;-68
2022/07/10 10:43:23;;;;;;;2.90;0.77;;;16.70;75.10;;;;;;5007612;28;20379;-68
2022/07/10 10:45:49;;;;;;;7.57;1.00;;;16.80;74.90;;;;;;5008684;28;20050;-68
2022/07/10 10:48:18;;;;;;;4.77;0.80;;;16.80;74.30;;;;;;4994986;28;20731;-68
2022/07/10 10:50:51;;;;;;;7.67;0.90;;;16.90;73.20;;;;;;5006342;28;20273;-68
2022/07/10 10:53:18;;;;;;;3.63;1.27;;;17.10;73.00;;;;;;5001986;28;20308;-68
2022/07/10 10:56:21;;;;;;;2.83;0.70;;;17.30;71.80;;;;;;5005812;28;20730;-68
2022/07/10 10:58:46;;;;;;;2.97;1.07;;;17.60;70.70;;;;;;5005618;28;20332;-68
2022/07/10 11:01:22;;;;;;;3.67;0.63;;;17.90;70.10;;;;;;5006522;28;20296;-68
2022/07/10 11:04:14;;;;;;;4.63;0.73;;;18.10;68.20;;;;;;5005942;28;20042;-68
2022/07/10 11:06:40;;;;;;;2.27;0.60;;;18.30;67.30;;;;;;5003949;28;20299;-68
2022/07/10 11:09:25;;;;;;;4.07;0.67;;;18.40;67.60;;;;;;5006502;28;20648;-68
2022/07/10 11:12:08;;;;;;;2.57;0.50;;;18.50;66.30;;;;;;5004872;28;20034;-68
2022/07/10 11:14:37;;;;;;;3.10;0.43;;;18.50;64.70;;;;;;5023159;28;20280;-68
2022/07/10 11:17:04;;;;;;;3.47;0.40;;;18.40;65.30;;;;;;5002919;28;20288;-68
2022/07/10 11:19:31;;;;;;;4.77;0.50;;;18.30;65.10;;;;;;4987402;28;20299;-68
2022/07/10 11:22:35;;;;;;;2.93;0.60;;;18.30;65.60;;;;;;5006506;28;20317;-68
2022/07/10 11:25:15;;;;;;;2.60;0.47;;;18.30;64.70;;;;;;5006025;28;20280;-68
2022/07/10 11:28:10;;;;;;;2.80;0.70;;;18.40;65.70;;;;;;4990681;28;20322;-68
2022/07/10 11:30:45;;;;;;;5.40;0.60;;;18.60;65.90;;;;;;4988965;28;20297;-68
2022/07/10 11:33:11;;;;;;;3.97;0.80;;;18.70;65.70;;;;;;4987654;28;20130;-68
2022/07/10 11:35:40;;;;;;;3.00;0.60;;;18.90;65.50;;;;;;5007859;28;20380;-68
2022/07/10 11:38:05;;;;;;;1.73;0.60;;;19.00;64.30;;;;;;5003499;28;20125;-68
2022/07/10 11:40:38;;;;;;;4.43;0.73;;;19.00;64.20;;;;;;4999783;28;20682;-68
2022/07/10 11:43:12;;;;;;;3.67;0.50;;;19.00;63.80;;;;;;4995663;28;20490;-68
2022/07/10 11:45:38;;;;;;;6.32;0.60;;;19.00;63.40;;;;;;4999340;28;20343;-68
2022/07/10 11:48:05;;;;;;;3.37;0.70;;;18.90;64.20;;;;;;4991859;28;20057;-66
2022/07/10 11:50:36;;;;;;;2.03;0.90;;;19.00;63.70;;;;;;4980680;28;20128;-66
2022/07/10 11:53:03;;;;;;;3.00;0.67;;;19.00;63.20;;;;;;4990238;28;20817;-67
2022/07/10 11:55:30;;;;;;;2.17;0.50;;;19.00;63.70;;;;;;4994142;28;20041;-67
2022/07/10 11:57:55;;;;;;;2.07;0.47;;;19.10;63.70;;;;;;4982611;28;20080;-67
2022/07/10 12:00:29;;;;;;;3.90;0.80;;;19.20;64.00;;;;;;5000757;28;20081;-67
2022/07/10 12:03:14;;;;;;;4.43;0.80;;;19.20;63.50;;;;;;4986899;28;20422;-67
2022/07/10 12:05:41;;;;;;;3.08;0.50;;;19.20;63.20;;;;;;5001864;28;20121;-67
2022/07/10 12:08:07;;;;;;;3.37;0.40;;;19.20;63.80;;;;;;4990184;28;20054;-67
2022/07/10 12:10:34;;;;;;;2.20;0.43;;;19.30;63.60;;;;;;4983854;28;20045;-67
2022/07/10 12:13:11;;;;;;;1.80;0.40;;;19.40;63.40;;;;;;4973105;28;20049;-67
2022/07/10 12:15:42;;;;;;;2.87;0.57;;;19.60;63.00;;;;;;4990253;28;20038;-67
2022/07/10 12:18:19;;;;;;;3.40;0.50;;;19.60;63.20;;;;;;4994347;28;20316;-67
2022/07/10 12:20:49;;;;;;;3.10;0.50;;;19.70;63.50;;;;;;4985025;28;20091;-67
2022/07/10 12:23:16;;;;;;;3.03;0.70;;;19.90;62.40;;;;;;4998760;28;20060;-67
2022/07/10 12:25:43;;;;;;;2.50;0.40;;;20.20;62.50;;;;;;5002313;28;20139;-68
2022/07/10 12:28:09;;;;;;;2.97;0.50;;;20.50;61.20;;;;;;4998896;28;20046;-68
2022/07/10 12:30:40;;;;;;;2.03;0.40;;;20.70;61.10;;;;;;5001629;28;20041;-68
2022/07/10 12:33:18;;;;;;;3.43;0.30;;;20.70;58.90;;;;;;4996170;28;20034;-68
2022/07/10 12:35:55;;;;;;;2.03;0.50;;;20.80;59.00;;;;;;4975610;28;20050;-68
2022/07/10 12:38:22;;;;;;;2.00;0.50;;;20.90;58.80;;;;;;4983319;28;20089;-67
2022/07/10 12:40:48;;;;;;;3.03;0.60;;;21.10;58.30;;;;;;4990312;28;20041;-67
2022/07/10 12:43:32;;;;;;;2.00;0.50;;;21.20;58.20;;;;;;4967730;28;20041;-67
2022/07/10 12:46:21;;;;;;;1.73;0.30;;;21.40;57.20;;;;;;4988705;28;20049;-67
2022/07/10 12:49:02;;;;;;;2.43;0.50;;;21.40;56.30;;;;;;4986969;28;20152;-67
2022/07/10 12:51:31;;;;;;;2.70;0.40;;;21.50;55.90;;;;;;4970814;28;20073;-67
2022/07/10 12:53:57;;;;;;;1.47;0.40;;;21.50;56.80;;;;;;4987240;28;20049;-67
2022/07/10 12:56:37;;;;;;;2.53;0.50;;;21.60;56.60;;;;;;4983467;28;20046;-67
2022/07/10 12:59:16;;;;;;;2.97;0.73;;;21.80;56.80;;;;;;5011818;28;20041;-67